Time;durP1;ratioP1;P1;durP2;ratioP2;P2;SDS_P1;SDS_P2;PMS_P1;PMS_P2;Temp;Humidity;BMP_temperature;BMP_pressure;BME280_temperature;BME280_humidity;BME280_pressure;Samples;Min_cycle;Max_cycle;Signal;HPM_P1;HPM_P2
2021/12/06 00:02:20;;;;;;;18.17;12.90;;;7.30;99.90;;;;;;6231584;23;20178;-87
2021/12/06 00:06:01;;;;;;;18.50;13.30;;;7.40;99.90;;;;;;6243472;23;20173;-87
2021/12/06 00:08:49;;;;;;;21.47;14.53;;;7.50;99.90;;;;;;6213882;23;20157;-87
2021/12/06 00:11:19;;;;;;;21.63;13.80;;;7.60;99.90;;;;;;6211268;23;20187;-96
2021/12/06 00:13:49;;;;;;;20.43;13.60;;;7.40;99.90;;;;;;6201074;23;20470;-96
2021/12/06 00:16:20;;;;;;;19.60;14.23;;;7.10;99.90;;;;;;6197187;23;20173;-96
2021/12/06 00:18:49;;;;;;;20.93;14.43;;;7.00;99.90;;;;;;6194006;23;20175;-95
2021/12/06 00:21:15;;;;;;;22.67;13.40;;;7.00;99.90;;;;;;6193202;23;20148;-96
2021/12/06 00:23:42;;;;;;;19.43;14.30;;;6.90;99.90;;;;;;6167661;23;20161;-94
2021/12/06 00:26:09;;;;;;;21.50;13.20;;;6.90;99.90;;;;;;6194054;23;20184;-96
2021/12/06 00:28:37;;;;;;;19.03;12.97;;;6.80;99.90;;;;;;6195474;23;20154;-96
2021/12/06 00:31:05;;;;;;;19.13;13.23;;;6.80;99.90;;;;;;6195412;23;20156;-95
2021/12/06 00:33:34;;;;;;;18.83;12.60;;;6.90;99.90;;;;;;6172106;23;20579;-94
2021/12/06 00:36:04;;;;;;;22.43;12.47;;;6.90;99.90;;;;;;6196184;23;20228;-95
2021/12/06 00:38:35;;;;;;;18.60;13.67;;;6.80;99.90;;;;;;6174591;23;20180;-95
2021/12/06 00:41:04;;;;;;;18.63;12.80;;;6.60;99.90;;;;;;6196624;23;20149;-93
2021/12/06 00:43:34;;;;;;;23.93;13.37;;;6.70;99.90;;;;;;6195430;23;20145;-96
2021/12/06 00:46:00;;;;;;;23.37;13.00;;;6.70;99.90;;;;;;6196228;23;20493;-91
2021/12/06 00:48:26;;;;;;;17.07;12.00;;;6.70;99.90;;;;;;6196695;23;20231;-91
2021/12/06 00:50:52;;;;;;;20.67;12.77;;;6.70;99.90;;;;;;6197512;23;20181;-89
2021/12/06 00:53:17;;;;;;;17.80;12.23;;;6.70;99.90;;;;;;6198794;23;20151;-92
2021/12/06 00:55:43;;;;;;;17.03;12.23;;;6.80;99.90;;;;;;6200900;23;20200;-92
2021/12/06 00:58:09;;;;;;;17.87;12.37;;;7.00;99.90;;;;;;6200366;23;20586;-91
2021/12/06 01:00:46;;;;;;;18.43;11.97;;;7.00;99.90;;;;;;6197707;23;20150;-85
2021/12/06 01:03:18;;;;;;;16.57;11.87;;;6.90;99.90;;;;;;6196477;23;20180;-92
2021/12/06 01:05:44;;;;;;;17.93;12.43;;;6.80;99.90;;;;;;6193582;23;20208;-95
2021/12/06 01:08:10;;;;;;;17.17;11.47;;;7.00;99.90;;;;;;6199469;23;20161;-94
2021/12/06 01:10:39;;;;;;;17.13;11.70;;;6.90;99.90;;;;;;6203091;23;20150;-95
2021/12/06 01:13:06;;;;;;;16.80;11.40;;;6.90;99.90;;;;;;6203760;23;20180;-96
2021/12/06 01:15:34;;;;;;;16.73;12.13;;;6.80;99.90;;;;;;6201508;23;20175;-96
2021/12/06 01:18:02;;;;;;;16.83;11.97;;;6.80;99.90;;;;;;6203081;23;20168;-94
2021/12/06 01:20:31;;;;;;;17.40;11.60;;;6.70;99.90;;;;;;6177181;23;20169;-95
2021/12/06 01:23:03;;;;;;;19.17;12.30;;;6.80;99.90;;;;;;6201733;23;20144;-96
2021/12/06 01:25:56;;;;;;;17.57;11.87;;;6.90;99.90;;;;;;6203647;23;20183;-95
2021/12/06 01:31:04;;;;;;;18.83;11.40;;;6.80;99.90;;;;;;6239050;23;20145;-96
2021/12/06 01:41:41;;;;;;;19.37;13.20;;;6.60;99.90;;;;;;6251360;23;20120;-96
2021/12/06 01:44:14;;;;;;;22.33;11.80;;;6.70;99.90;;;;;;6173010;23;20222;-96
2021/12/06 01:46:50;;;;;;;19.57;13.50;;;6.80;99.90;;;;;;6194913;23;20188;-96
2021/12/06 01:49:19;;;;;;;19.53;12.77;;;7.00;99.90;;;;;;6194172;23;20155;-96
2021/12/06 01:51:47;;;;;;;24.23;16.43;;;6.90;99.90;;;;;;6193968;23;20719;-94
2021/12/06 01:54:14;;;;;;;31.57;19.93;;;6.80;99.90;;;;;;6194310;23;20149;-95
2021/12/06 01:56:40;;;;;;;24.13;16.00;;;7.00;99.90;;;;;;6195972;23;20145;-96
2021/12/06 01:59:08;;;;;;;26.17;17.20;;;7.00;99.90;;;;;;6195937;23;20247;-96
2021/12/06 02:01:34;;;;;;;26.97;17.13;;;6.90;99.90;;;;;;6195367;23;20158;-95
2021/12/06 02:04:01;;;;;;;24.73;16.10;;;6.70;99.90;;;;;;6196046;23;20149;-96
2021/12/06 02:06:27;;;;;;;23.97;15.50;;;6.60;99.90;;;;;;6194976;23;20189;-94
2021/12/06 02:08:53;;;;;;;24.03;16.13;;;6.60;99.90;;;;;;6195197;23;20141;-96
2021/12/06 02:11:22;;;;;;;27.47;15.83;;;6.50;99.90;;;;;;6195114;23;20152;-95
2021/12/06 02:14:06;;;;;;;25.33;16.50;;;6.40;99.90;;;;;;6194825;23;20169;-96
2021/12/06 02:16:56;;;;;;;21.83;14.70;;;6.40;99.90;;;;;;6195896;23;20186;-96
2021/12/06 02:19:19;;;;;;;21.63;13.77;;;6.30;99.90;;;;;;6221152;23;20173;-96
2021/12/06 02:21:45;;;;;;;25.23;15.43;;;6.30;99.90;;;;;;6198949;23;20233;-96
2021/12/06 02:24:11;;;;;;;25.47;14.70;;;6.20;99.90;;;;;;6196388;23;20149;-96
2021/12/06 02:26:40;;;;;;;25.83;14.47;;;6.10;99.90;;;;;;6195987;23;20232;-96
2021/12/06 02:29:08;;;;;;;21.70;14.40;;;6.10;99.90;;;;;;6196395;23;20172;-95
2021/12/06 02:31:35;;;;;;;21.60;14.83;;;6.20;99.90;;;;;;6195424;23;20156;-96
2021/12/06 02:34:01;;;;;;;22.87;14.67;;;6.10;99.90;;;;;;6193613;23;20145;-94
2021/12/06 02:36:27;;;;;;;22.53;15.23;;;6.00;99.90;;;;;;6193799;23;20206;-93
2021/12/06 02:38:54;;;;;;;22.93;14.33;;;5.90;99.90;;;;;;6194529;23;20168;-96
2021/12/06 02:41:20;;;;;;;23.47;14.40;;;5.90;99.90;;;;;;6193938;23;20226;-94
2021/12/06 02:43:47;;;;;;;24.57;15.17;;;5.90;99.90;;;;;;6194183;23;20624;-96
2021/12/06 02:46:12;;;;;;;23.30;14.57;;;6.00;99.90;;;;;;6193898;23;20195;-96
2021/12/06 02:48:41;;;;;;;24.13;15.30;;;5.80;99.90;;;;;;6193058;23;20203;-92
2021/12/06 02:51:08;;;;;;;21.50;15.03;;;5.70;99.90;;;;;;6193509;23;20604;-96
2021/12/06 02:53:36;;;;;;;23.80;14.77;;;5.70;99.90;;;;;;6193363;23;20179;-92
2021/12/06 02:56:06;;;;;;;23.40;14.83;;;5.80;99.90;;;;;;6194787;23;20151;-96
2021/12/06 03:01:12;;;;;;;27.83;16.17;;;5.80;99.90;;;;;;6220682;23;20156;-96
2021/12/06 03:03:39;;;;;;;26.27;16.40;;;5.80;99.90;;;;;;6193211;23;20151;-96
2021/12/06 03:06:05;;;;;;;23.97;15.83;;;5.70;99.90;;;;;;6193401;23;20216;-96
2021/12/06 03:08:38;;;;;;;23.93;15.83;;;5.70;99.90;;;;;;6192902;23;20170;-93
2021/12/06 03:11:10;;;;;;;28.60;17.17;;;5.80;99.90;;;;;;6192810;23;20589;-96
2021/12/06 03:13:36;;;;;;;22.47;16.03;;;5.80;99.90;;;;;;6191892;23;20154;-96
2021/12/06 03:16:03;;;;;;;24.37;16.07;;;5.70;99.90;;;;;;6192458;23;20250;-96
2021/12/06 03:18:29;;;;;;;24.23;16.30;;;5.70;99.90;;;;;;6193443;23;20167;-96
2021/12/06 03:20:55;;;;;;;24.83;15.87;;;5.60;99.90;;;;;;6193221;23;20183;-94
2021/12/06 03:23:20;;;;;;;24.70;16.40;;;5.50;99.90;;;;;;6194163;23;20153;-95
2021/12/06 03:25:46;;;;;;;25.73;17.17;;;5.50;99.90;;;;;;6193071;23;20199;-95
2021/12/06 03:28:12;;;;;;;25.80;16.57;;;5.40;99.90;;;;;;6195421;23;20180;-95
2021/12/06 03:30:39;;;;;;;22.83;15.23;;;5.50;99.90;;;;;;6193831;23;20152;-93
2021/12/06 03:33:05;;;;;;;25.23;16.00;;;5.40;99.90;;;;;;6193995;23;20143;-96
2021/12/06 03:35:30;;;;;;;22.97;15.90;;;5.50;99.90;;;;;;6194410;23;20177;-96
2021/12/06 03:37:59;;;;;;;25.57;16.53;;;5.50;99.90;;;;;;6194733;23;20148;-94
2021/12/06 03:40:25;;;;;;;26.43;17.50;;;5.40;99.90;;;;;;6195407;23;20153;-96
2021/12/06 03:42:53;;;;;;;25.97;16.07;;;5.30;99.90;;;;;;6191671;23;20482;-95
2021/12/06 03:45:19;;;;;;;25.63;15.80;;;5.30;99.90;;;;;;6191004;23;20185;-95
2021/12/06 03:47:44;;;;;;;27.03;16.23;;;5.30;99.90;;;;;;6190900;23;20474;-94
2021/12/06 03:50:12;;;;;;;24.10;16.00;;;5.40;99.90;;;;;;6190944;23;20152;-93
2021/12/06 03:52:38;;;;;;;26.17;16.70;;;5.50;99.90;;;;;;6190685;23;20172;-95
2021/12/06 03:55:06;;;;;;;29.30;17.63;;;5.50;99.90;;;;;;6190882;23;20147;-92
2021/12/06 03:57:32;;;;;;;28.13;18.23;;;5.70;99.90;;;;;;6190495;23;20144;-96
2021/12/06 03:59:58;;;;;;;28.77;18.33;;;5.70;99.90;;;;;;6190657;23;20148;-95
2021/12/06 04:02:29;;;;;;;29.63;17.73;;;5.80;99.90;;;;;;6190755;23;20167;-96
2021/12/06 04:04:55;;;;;;;30.43;18.47;;;5.70;99.90;;;;;;6195453;23;20655;-96
2021/12/06 04:07:22;;;;;;;31.37;19.77;;;5.60;99.90;;;;;;6197535;23;20148;-95
2021/12/06 04:09:48;;;;;;;36.30;19.77;;;5.70;99.90;;;;;;6222021;23;20142;-96
2021/12/06 04:12:15;;;;;;;38.53;22.20;;;5.80;99.90;;;;;;6193276;23;20235;-95
2021/12/06 04:14:41;;;;;;;37.40;21.40;;;5.80;99.90;;;;;;6194826;23;20167;-95
2021/12/06 04:17:09;;;;;;;39.37;22.30;;;5.90;99.90;;;;;;6206613;23;20192;-96
2021/12/06 04:19:35;;;;;;;38.80;23.40;;;5.70;99.90;;;;;;6235520;23;20167;-96
2021/12/06 04:22:03;;;;;;;41.73;23.83;;;5.60;99.90;;;;;;6193928;23;20166;-96
2021/12/06 04:24:30;;;;;;;40.87;23.47;;;5.60;99.90;;;;;;6194097;23;20159;-96
2021/12/06 04:26:56;;;;;;;47.30;25.07;;;5.80;99.90;;;;;;6195176;23;20143;-94
2021/12/06 04:29:25;;;;;;;48.27;25.63;;;5.90;99.90;;;;;;6170298;23;20156;-96
2021/12/06 04:31:55;;;;;;;46.47;25.20;;;5.70;99.90;;;;;;6194990;23;20155;-96
2021/12/06 04:34:21;;;;;;;42.73;23.87;;;5.70;99.90;;;;;;6196241;23;20226;-96
2021/12/06 04:36:48;;;;;;;46.87;24.97;;;5.40;99.90;;;;;;6194237;23;20152;-95
2021/12/06 04:39:17;;;;;;;49.03;25.07;;;5.40;99.90;;;;;;6194985;23;20136;-95
2021/12/06 04:41:46;;;;;;;41.87;24.23;;;5.30;99.90;;;;;;6192852;23;20148;-92
2021/12/06 04:44:12;;;;;;;40.17;21.67;;;5.20;99.90;;;;;;6193352;23;20576;-96
2021/12/06 04:46:37;;;;;;;45.37;24.30;;;5.10;99.90;;;;;;6192733;23;20195;-93
2021/12/06 04:49:05;;;;;;;42.10;25.33;;;5.20;99.90;;;;;;6192023;23;20488;-96
2021/12/06 04:51:31;;;;;;;45.47;24.93;;;5.30;99.90;;;;;;6191744;23;20175;-96
2021/12/06 04:53:57;;;;;;;52.37;24.77;;;5.30;99.90;;;;;;6191439;23;20217;-95
2021/12/06 04:56:39;;;;;;;49.60;22.90;;;5.30;99.90;;;;;;6191807;23;20180;-96
2021/12/06 04:59:25;;;;;;;51.13;23.13;;;5.30;99.90;;;;;;6190704;23;20171;-95
2021/12/06 05:01:55;;;;;;;53.93;22.73;;;5.20;99.90;;;;;;6191129;23;20621;-95
2021/12/06 05:04:30;;;;;;;70.83;23.00;;;5.30;99.90;;;;;;6192609;23;20166;-95
2021/12/06 05:07:05;;;;;;;48.97;22.63;;;5.40;99.90;;;;;;6191971;23;20139;-96
2021/12/06 05:09:37;;;;;;;58.80;21.40;;;5.40;99.90;;;;;;6192590;23;20135;-96
2021/12/06 05:12:04;;;;;;;46.93;19.53;;;5.40;99.90;;;;;;6192641;23;20570;-95
2021/12/06 05:14:30;;;;;;;59.03;22.07;;;5.40;99.90;;;;;;6192814;23;20150;-96
2021/12/06 05:16:56;;;;;;;51.63;20.97;;;5.40;99.90;;;;;;6192094;23;20214;-95
2021/12/06 05:19:23;;;;;;;72.53;20.40;;;5.40;99.90;;;;;;6192277;23;20194;-96
2021/12/06 05:21:49;;;;;;;99.00;20.97;;;5.30;99.90;;;;;;6198475;23;20168;-96
2021/12/06 05:24:16;;;;;;;85.80;21.33;;;5.20;99.90;;;;;;6202108;23;20151;-96
2021/12/06 05:26:42;;;;;;;78.80;21.80;;;5.30;99.90;;;;;;6201426;23;20156;-94
2021/12/06 05:29:10;;;;;;;84.83;20.40;;;5.20;99.90;;;;;;6201207;23;20140;-96
2021/12/06 05:31:40;;;;;;;48.47;21.40;;;5.20;99.90;;;;;;6201216;23;20184;-96
2021/12/06 05:34:17;;;;;;;60.50;19.50;;;5.20;99.90;;;;;;6202242;23;20144;-96
2021/12/06 05:36:43;;;;;;;55.97;19.97;;;5.30;99.90;;;;;;6202742;23;20154;-96
2021/12/06 05:39:09;;;;;;;58.43;19.13;;;5.30;99.90;;;;;;6202986;23;20141;-96
2021/12/06 05:41:37;;;;;;;59.63;20.03;;;5.30;99.90;;;;;;6201784;23;20456;-96
2021/12/06 05:44:03;;;;;;;83.77;19.73;;;5.30;99.90;;;;;;6196197;23;20175;-96
2021/12/06 05:46:29;;;;;;;70.53;19.17;;;5.30;99.90;;;;;;6198012;23;20267;-96
2021/12/06 05:48:54;;;;;;;65.27;19.17;;;5.30;99.90;;;;;;6195873;23;20140;-96
2021/12/06 05:51:20;;;;;;;53.97;19.37;;;5.30;99.90;;;;;;6193896;23;20170;-96
2021/12/06 05:53:47;;;;;;;50.57;19.73;;;5.20;99.90;;;;;;6193547;23;20229;-96
2021/12/06 05:56:12;;;;;;;53.73;19.63;;;5.20;99.90;;;;;;6196086;23;20173;-93
2021/12/06 05:58:38;;;;;;;62.27;19.43;;;5.20;99.90;;;;;;6195127;23;20167;-96
2021/12/06 06:01:05;;;;;;;73.93;20.00;;;5.20;99.90;;;;;;6195828;23;20174;-95
2021/12/06 06:03:31;;;;;;;51.80;18.33;;;5.20;99.90;;;;;;6195175;23;20155;-95
2021/12/06 06:05:57;;;;;;;52.87;19.93;;;5.20;99.90;;;;;;6195157;23;20187;-96
2021/12/06 06:08:23;;;;;;;60.83;20.30;;;5.20;99.90;;;;;;6196015;23;20215;-96
2021/12/06 06:10:51;;;;;;;62.93;19.37;;;5.50;99.90;;;;;;6195788;23;20144;-96
2021/12/06 06:13:17;;;;;;;39.37;18.50;;;5.40;99.90;;;;;;6196332;23;20158;-96
2021/12/06 06:15:43;;;;;;;54.53;20.10;;;5.30;99.90;;;;;;6194161;23;20256;-96
2021/12/06 06:18:10;;;;;;;47.23;21.10;;;5.30;99.90;;;;;;6194210;23;20173;-95
2021/12/06 06:20:45;;;;;;;52.20;20.37;;;5.40;99.90;;;;;;6193678;23;20235;-96
2021/12/06 06:23:10;;;;;;;47.70;20.53;;;5.30;99.90;;;;;;6194555;23;20139;-95
2021/12/06 06:25:36;;;;;;;62.50;21.93;;;5.20;99.90;;;;;;6194314;23;20218;-96
2021/12/06 06:28:03;;;;;;;58.47;21.23;;;5.40;99.90;;;;;;6193420;23;20148;-95
2021/12/06 06:30:30;;;;;;;77.63;23.43;;;5.50;99.90;;;;;;6193831;23;20215;-95
2021/12/06 06:32:55;;;;;;;75.77;22.87;;;5.50;99.90;;;;;;6192596;23;20278;-95
2021/12/06 06:35:21;;;;;;;63.80;24.63;;;5.40;99.90;;;;;;6195322;23;20146;-96
2021/12/06 06:37:47;;;;;;;87.03;24.73;;;5.50;99.90;;;;;;6195301;23;20206;-95
2021/12/06 06:40:14;;;;;;;84.73;24.53;;;5.50;99.90;;;;;;6194347;23;20168;-96
2021/12/06 06:42:40;;;;;;;112.33;25.27;;;5.70;99.90;;;;;;6195117;23;20143;-96
2021/12/06 06:45:08;;;;;;;87.07;25.20;;;5.90;99.90;;;;;;6193960;23;20176;-96
2021/12/06 06:47:33;;;;;;;108.60;28.03;;;5.80;99.90;;;;;;6206796;23;20167;-96
2021/12/06 06:49:59;;;;;;;75.77;28.33;;;5.80;99.90;;;;;;6212701;23;20159;-92
2021/12/06 06:52:25;;;;;;;65.10;26.27;;;5.50;99.90;;;;;;6212982;23;20144;-90
2021/12/06 06:54:53;;;;;;;83.83;27.67;;;5.50;99.90;;;;;;6217832;23;20323;-86
2021/12/06 06:57:34;;;;;;;71.73;28.43;;;5.30;99.90;;;;;;6243897;23;20160;-85
2021/12/06 07:00:00;;;;;;;71.40;29.07;;;5.60;99.90;;;;;;6219555;23;20124;-87
2021/12/06 07:02:25;;;;;;;80.93;30.93;;;5.60;99.90;;;;;;6218487;23;20174;-85
2021/12/06 07:05:11;;;;;;;74.93;29.67;;;5.70;99.90;;;;;;6218508;23;20172;-88
2021/12/06 07:07:38;;;;;;;68.23;28.77;;;5.60;99.90;;;;;;6218088;23;20140;-90
2021/12/06 07:10:27;;;;;;;76.77;28.90;;;5.50;99.90;;;;;;6193718;23;20183;-88
2021/12/06 07:13:19;;;;;;;66.30;27.37;;;5.40;99.90;;;;;;6218545;23;20162;-85
2021/12/06 07:18:18;;;;;;;63.93;26.83;;;5.30;99.90;;;;;;6244190;23;20184;-84
2021/12/06 07:20:46;;;;;;;65.17;26.30;;;5.30;99.90;;;;;;6218957;23;20163;-93
2021/12/06 07:23:12;;;;;;;70.73;30.33;;;5.40;99.90;;;;;;6201401;23;20577;-92
2021/12/06 08:43:19;;;;;;;35.97;18.70;;;5.70;99.90;;;;;;6204391;22;20226;-87
2021/12/06 08:45:52;;;;;;;31.77;17.23;;;5.80;99.90;;;;;;6189161;23;20291;-88
2021/12/06 08:48:18;;;;;;;31.03;17.00;;;6.00;99.90;;;;;;6216373;23;20171;-89
2021/12/06 08:50:45;;;;;;;32.73;17.47;;;6.00;99.90;;;;;;6216560;23;20147;-89
2021/12/06 08:53:11;;;;;;;36.77;18.03;;;6.00;99.90;;;;;;6189053;23;20468;-87
2021/12/06 08:55:36;;;;;;;37.57;19.67;;;5.90;99.90;;;;;;6194915;23;20154;-87
2021/12/06 08:58:02;;;;;;;32.17;17.50;;;5.90;99.90;;;;;;6215129;23;20148;-87
2021/12/06 09:00:35;;;;;;;41.27;20.53;;;5.80;99.90;;;;;;6188773;23;20148;-84
2021/12/06 09:03:01;;;;;;;42.63;21.30;;;5.80;99.90;;;;;;6188941;23;20187;-86
2021/12/06 09:05:31;;;;;;;49.73;25.03;;;5.90;99.90;;;;;;6189372;23;20632;-85
2021/12/06 09:07:58;;;;;;;42.40;21.23;;;5.90;99.90;;;;;;6215896;23;20137;-90
2021/12/06 09:10:24;;;;;;;46.20;21.53;;;5.90;99.90;;;;;;6189988;23;20477;-89
2021/12/06 10:18:02;;;;;;;22.30;14.20;;;7.10;99.90;;;;;;6186093;23;20216;31
2021/12/06 10:20:29;;;;;;;24.27;14.30;;;7.60;99.90;;;;;;6157653;23;20207;-88
2021/12/06 10:22:55;;;;;;;24.80;14.50;;;8.10;99.90;;;;;;6132247;23;20150;-86
2021/12/06 10:25:23;;;;;;;23.60;14.13;;;8.70;99.90;;;;;;6130946;23;20186;-86
2021/12/06 10:28:03;;;;;;;21.10;13.80;;;9.20;99.90;;;;;;6157834;23;20168;-86
2021/12/06 10:30:29;;;;;;;19.23;13.23;;;9.60;99.90;;;;;;6131063;23;20596;-86
2021/12/06 10:33:05;;;;;;;20.33;13.57;;;10.10;99.90;;;;;;6131963;23;20176;-85
2021/12/06 10:35:31;;;;;;;35.33;22.30;;;10.70;99.90;;;;;;6131275;23;20141;-86
2021/12/06 10:37:58;;;;;;;19.63;12.40;;;11.30;99.90;;;;;;6131170;23;20149;-85
2021/12/06 10:54:17;;;;;;;11.43;8.33;;;13.70;99.80;;;;;;6200251;23;20439;-85
2021/12/06 10:56:47;;;;;;;12.33;9.10;;;14.20;97.50;;;;;;6190170;23;20238;-85
2021/12/06 10:59:18;;;;;;;10.80;8.63;;;14.40;97.90;;;;;;6190216;23;20229;-85
2021/12/06 11:01:45;;;;;;;10.17;8.10;;;14.50;97.30;;;;;;6190202;23;20172;-85
2021/12/06 11:04:16;;;;;;;10.70;8.10;;;14.60;95.70;;;;;;6216756;23;20135;-85
2021/12/06 11:06:49;;;;;;;10.60;8.23;;;14.90;96.00;;;;;;6189685;23;20188;-85
2021/12/06 11:09:26;;;;;;;11.13;7.60;;;15.10;95.60;;;;;;6190018;23;20151;-85
2021/12/06 11:11:59;;;;;;;10.00;7.87;;;15.70;93.90;;;;;;6190796;23;20483;-85
2021/12/06 11:14:34;;;;;;;11.10;8.23;;;15.80;93.90;;;;;;6190299;23;20143;-85
2021/12/06 11:17:12;;;;;;;9.33;7.37;;;16.00;93.80;;;;;;6190354;23;20606;-85
2021/12/06 11:19:38;;;;;;;12.07;8.73;;;16.50;92.50;;;;;;6190159;23;20148;-85
2021/12/06 11:22:05;;;;;;;10.33;8.60;;;16.40;92.30;;;;;;6189758;23;20188;-85
2021/12/06 11:24:46;;;;;;;13.00;8.70;;;16.60;92.30;;;;;;6189810;23;20212;-85
2021/12/06 11:27:24;;;;;;;11.70;8.00;;;16.40;92.50;;;;;;6190235;23;20151;-85
2021/12/06 11:29:54;;;;;;;12.57;8.83;;;17.00;91.80;;;;;;6189526;23;20587;-85
2021/12/06 11:32:31;;;;;;;15.17;9.57;;;17.10;91.40;;;;;;6190182;23;20580;-88
2021/12/06 11:35:16;;;;;;;14.30;9.27;;;17.30;91.30;;;;;;6189864;23;20158;-85
2021/12/06 11:37:49;;;;;;;11.77;9.47;;;17.00;90.70;;;;;;6190054;23;20150;-85
2021/12/06 11:40:17;;;;;;;11.53;8.47;;;16.60;91.60;;;;;;6190014;23;20210;-85
2021/12/06 11:43:03;;;;;;;17.60;10.47;;;16.90;92.00;;;;;;6189565;23;20224;-85
2021/12/06 11:45:55;;;;;;;12.83;9.47;;;17.00;91.30;;;;;;6189706;23;20789;-85
2021/12/06 11:48:30;;;;;;;12.00;8.60;;;17.20;91.20;;;;;;6190180;23;20144;-85
2021/12/06 11:51:15;;;;;;;12.33;8.27;;;17.50;90.80;;;;;;6189346;23;20207;-85
2021/12/06 11:53:51;;;;;;;11.93;7.57;;;17.80;90.20;;;;;;6189237;23;20198;-85
2021/12/06 11:56:19;;;;;;;13.20;8.07;;;17.10;90.20;;;;;;6188884;23;20159;-85
2021/12/06 11:58:54;;;;;;;10.33;7.03;;;17.10;90.00;;;;;;6189689;23;20148;-85
2021/12/06 12:01:27;;;;;;;8.93;6.27;;;16.90;90.20;;;;;;6189945;23;20162;-85
2021/12/06 12:04:08;;;;;;;10.33;6.37;;;16.30;90.30;;;;;;6189944;23;20236;-85
2021/12/06 12:06:44;;;;;;;8.63;6.57;;;15.60;90.90;;;;;;6189340;23;20184;-85
2021/12/06 12:09:26;;;;;;;10.47;6.50;;;14.50;92.30;;;;;;6189490;23;20658;-85
2021/12/06 12:12:15;;;;;;;11.83;6.43;;;13.20;93.40;;;;;;6189488;23;20147;-83
2021/12/06 12:14:50;;;;;;;9.37;6.23;;;12.30;95.20;;;;;;6189597;23;20202;-84
2021/12/06 12:17:35;;;;;;;8.97;5.83;;;11.40;96.20;;;;;;6189432;23;20167;-84
2021/12/06 12:20:07;;;;;;;11.17;5.93;;;10.80;97.80;;;;;;6189579;23;20175;-84
2021/12/06 12:22:33;;;;;;;10.50;6.13;;;10.30;98.30;;;;;;6189434;23;20201;-85
2021/12/06 12:25:07;;;;;;;12.63;6.00;;;10.10;99.40;;;;;;6190030;23;20182;-85
2021/12/06 12:27:43;;;;;;;8.67;5.53;;;10.00;99.90;;;;;;6188966;23;20145;-85
2021/12/06 12:30:10;;;;;;;11.43;6.73;;;10.00;99.70;;;;;;6189272;23;20141;-87
2021/12/06 12:32:35;;;;;;;16.60;9.20;;;9.50;99.90;;;;;;6189396;23;20152;-85
2021/12/06 12:35:07;;;;;;;15.70;10.07;;;9.40;99.90;;;;;;6189284;23;20147;-84
2021/12/06 12:37:36;;;;;;;62.83;32.67;;;9.30;99.90;;;;;;6189604;23;20173;-85
2021/12/06 12:40:01;;;;;;;49.53;30.00;;;9.30;99.90;;;;;;6189427;23;20144;-85
2021/12/06 12:42:28;;;;;;;13.87;8.13;;;9.10;99.90;;;;;;6189364;23;20149;-84
2021/12/06 12:44:56;;;;;;;17.57;10.97;;;8.80;99.90;;;;;;6189633;23;20171;-84
2021/12/06 12:47:25;;;;;;;11.13;7.50;;;9.00;99.90;;;;;;6188936;23;20157;-85
2021/12/06 12:50:06;;;;;;;7.93;5.50;;;9.10;99.90;;;;;;6189543;23;20214;-85
2021/12/06 12:52:41;;;;;;;9.20;5.70;;;9.20;99.90;;;;;;6189011;23;20148;-84
2021/12/06 12:55:21;;;;;;;8.93;5.70;;;9.30;99.90;;;;;;6189377;23;20251;-85
2021/12/06 12:57:47;;;;;;;9.50;5.63;;;9.30;99.90;;;;;;6189234;23;20199;-86
2021/12/06 13:00:24;;;;;;;8.27;5.80;;;9.20;99.90;;;;;;6189146;23;20155;-89
2021/12/06 13:02:50;;;;;;;9.37;5.90;;;9.10;99.90;;;;;;6188855;23;20147;-85
2021/12/06 13:05:20;;;;;;;8.80;5.67;;;8.80;99.90;;;;;;6188612;23;20176;-84
2021/12/06 13:07:54;;;;;;;9.23;6.03;;;8.80;99.90;;;;;;6189097;23;20152;-85
2021/12/06 13:10:25;;;;;;;8.33;5.77;;;8.70;99.90;;;;;;6189313;23;20191;-85
2021/12/06 13:12:59;;;;;;;11.13;6.43;;;8.40;99.90;;;;;;6189180;23;20159;-84
2021/12/06 13:21:27;;;;;;;9.73;6.10;;;8.10;99.90;;;;;;6197088;23;20164;-85
2021/12/06 13:24:27;;;;;;;8.10;5.50;;;8.00;99.90;;;;;;6189073;23;20214;-87
2021/12/06 13:26:56;;;;;;;10.33;5.60;;;8.10;99.90;;;;;;6188850;23;20687;-84
2021/12/06 13:29:45;;;;;;;11.43;5.80;;;8.40;99.90;;;;;;6189097;23;20151;-85
2021/12/06 13:32:29;;;;;;;10.40;5.53;;;8.40;99.90;;;;;;6166838;23;20155;-84
2021/12/06 13:35:13;;;;;;;8.13;5.20;;;8.30;99.90;;;;;;6189026;23;20164;-84
2021/12/06 13:37:39;;;;;;;7.63;5.23;;;8.00;99.90;;;;;;6189080;23;20179;-84
2021/12/06 13:40:20;;;;;;;7.47;4.30;;;8.10;99.90;;;;;;6189423;23;20180;-84
2021/12/06 13:42:48;;;;;;;9.20;5.40;;;8.10;99.90;;;;;;6189876;23;20552;-85
2021/12/06 13:45:23;;;;;;;9.37;5.57;;;8.10;99.90;;;;;;6189209;23;20168;-84
2021/12/06 13:48:11;;;;;;;7.20;4.50;;;8.20;99.90;;;;;;6190134;23;20152;-84
2021/12/06 13:50:37;;;;;;;7.60;4.63;;;8.10;99.90;;;;;;6189086;23;20578;-88
2021/12/06 13:53:03;;;;;;;7.60;4.97;;;8.10;99.90;;;;;;6188948;23;20227;-84
2021/12/06 13:55:37;;;;;;;9.80;5.70;;;7.90;99.90;;;;;;6188938;23;20194;-84
2021/12/06 14:35:05;;;;;;;8.20;5.37;;;7.80;99.90;;;;;;6209530;22;20207;-92
2021/12/06 14:37:31;;;;;;;7.07;4.80;;;7.90;99.90;;;;;;6190388;23;20156;-90
2021/12/06 14:39:58;;;;;;;9.47;5.30;;;7.90;99.90;;;;;;6190712;23;20190;-92
2021/12/06 14:42:26;;;;;;;8.13;5.20;;;7.90;99.90;;;;;;6191153;23;20608;-89
2021/12/06 14:45:01;;;;;;;9.13;5.33;;;7.90;99.90;;;;;;6190756;23;20202;-90
2021/12/06 14:47:39;;;;;;;9.13;5.30;;;7.90;99.90;;;;;;6190814;23;20147;-90
2021/12/06 14:50:35;;;;;;;9.63;5.57;;;7.90;99.90;;;;;;6191104;23;20557;-89
2021/12/06 14:53:17;;;;;;;9.57;5.20;;;7.90;99.90;;;;;;6192553;23;20155;-92
2021/12/06 14:55:52;;;;;;;8.17;5.30;;;7.90;99.90;;;;;;6185951;23;20158;-91
2021/12/06 14:58:36;;;;;;;8.83;5.73;;;7.60;99.90;;;;;;6192232;23;20194;-92
2021/12/06 15:01:15;;;;;;;8.70;5.93;;;7.60;99.90;;;;;;6190819;23;20151;-91
2021/12/06 15:03:48;;;;;;;10.30;5.63;;;7.50;99.90;;;;;;6191480;23;20565;-89
2021/12/06 15:06:16;;;;;;;9.33;5.87;;;7.40;99.90;;;;;;6191317;23;20191;-91
2021/12/06 15:08:54;;;;;;;12.67;5.70;;;7.40;99.90;;;;;;6191238;23;20190;-91
2021/12/06 15:11:38;;;;;;;10.33;6.37;;;7.40;99.90;;;;;;6190542;23;20646;-89
2021/12/06 15:14:11;;;;;;;8.70;5.80;;;7.30;99.90;;;;;;6191060;23;20574;-90
2021/12/06 15:16:38;;;;;;;10.87;6.63;;;7.30;99.90;;;;;;6190443;23;20198;-90
2021/12/06 15:19:09;;;;;;;12.07;6.67;;;7.40;99.90;;;;;;6191062;23;20152;-89
2021/12/06 15:21:36;;;;;;;12.60;7.67;;;7.40;99.90;;;;;;6190681;23;20182;-89
2021/12/06 15:24:04;;;;;;;15.27;8.53;;;7.30;99.90;;;;;;6191073;23;20638;-88
2021/12/06 15:26:42;;;;;;;14.20;8.97;;;7.20;99.90;;;;;;6190836;23;20206;-92
2021/12/06 15:29:10;;;;;;;19.07;10.77;;;7.30;99.90;;;;;;6190636;23;20171;-90
2021/12/06 15:31:38;;;;;;;14.20;7.93;;;7.30;99.90;;;;;;6190632;23;20596;-89
2021/12/06 15:34:04;;;;;;;13.17;8.20;;;7.20;99.90;;;;;;6190543;23;20182;-89
2021/12/06 15:36:30;;;;;;;12.27;7.70;;;7.20;99.90;;;;;;6191056;23;20505;-90
2021/12/06 15:38:57;;;;;;;12.30;7.47;;;7.20;99.90;;;;;;6190886;23;20148;-92
2021/12/06 15:41:28;;;;;;;11.53;7.60;;;7.30;99.90;;;;;;6190538;23;20144;-89
2021/12/06 15:44:11;;;;;;;15.00;8.07;;;7.20;99.90;;;;;;6217221;23;20455;-90
2021/12/06 15:46:48;;;;;;;18.70;8.90;;;7.30;99.90;;;;;;6190974;23;20175;-90
2021/12/06 15:49:14;;;;;;;26.03;13.07;;;7.30;99.90;;;;;;6190402;23;20147;-89
2021/12/06 15:52:03;;;;;;;12.00;7.63;;;7.20;99.90;;;;;;6190734;23;20152;-90
2021/12/06 15:54:33;;;;;;;12.77;7.83;;;7.10;99.90;;;;;;6190411;23;20231;-91
2021/12/06 15:57:10;;;;;;;22.33;10.90;;;7.00;99.90;;;;;;6190393;23;20136;-90
2021/12/06 15:59:37;;;;;;;12.97;8.10;;;6.90;99.90;;;;;;6189896;23;20148;-88
2021/12/06 16:33:42;;;;;;;16.77;11.60;;;6.20;99.90;;;;;;6209982;23;20211;-80
2021/12/06 16:36:31;;;;;;;17.90;13.23;;;6.20;99.90;;;;;;6188924;23;20143;-81
2021/12/06 16:39:28;;;;;;;20.00;11.67;;;5.90;99.90;;;;;;6188385;23;20159;-79
2021/12/06 16:42:07;;;;;;;21.03;12.83;;;5.70;99.90;;;;;;6188902;23;20206;-79
2021/12/06 16:44:40;;;;;;;18.53;11.23;;;5.50;99.90;;;;;;6215549;23;20140;-79
2021/12/06 16:47:22;;;;;;;24.27;15.00;;;5.20;99.90;;;;;;6215701;23;20148;-79
2021/12/06 16:50:16;;;;;;;28.07;14.80;;;5.20;99.90;;;;;;6188691;23;20198;-79
2021/12/06 16:53:03;;;;;;;23.47;14.40;;;5.20;99.90;;;;;;6215338;23;20132;-79
2021/12/06 16:55:31;;;;;;;21.53;13.50;;;5.10;99.90;;;;;;6215446;23;20144;-79
2021/12/06 16:58:07;;;;;;;24.33;15.67;;;5.00;99.90;;;;;;6188131;23;20205;-79
2021/12/06 17:00:42;;;;;;;32.43;20.23;;;5.00;99.90;;;;;;6214978;23;20229;-79
2021/12/06 17:03:11;;;;;;;29.33;15.90;;;4.90;99.90;;;;;;6214797;23;20152;-79
2021/12/06 17:05:50;;;;;;;23.83;14.07;;;5.00;99.90;;;;;;6188372;23;20175;-78
2021/12/06 17:08:25;;;;;;;28.00;14.43;;;4.90;99.90;;;;;;6188610;23;20155;-79